Time;durP1;ratioP1;P1;durP2;ratioP2;P2;SDS_P1;SDS_P2;PMS_P1;PMS_P2;Temp;Humidity;BMP_temperature;BMP_pressure;BME280_temperature;BME280_humidity;BME280_pressure;Samples;Min_cycle;Max_cycle;Signal;HPM_P1;HPM_P2
2022/09/21 00:01:08;;;;;;;5.37;4.63;;;12.80;60.30;;;;;;5010078;28;21024;-47
2022/09/21 00:03:35;;;;;;;5.60;4.87;;;12.80;60.60;;;;;;5009029;28;20460;-47
2022/09/21 00:06:02;;;;;;;5.57;4.80;;;12.80;61.80;;;;;;5010458;28;20446;-50
2022/09/21 00:08:28;;;;;;;5.10;4.60;;;12.70;61.20;;;;;;5009833;28;20452;-47
2022/09/21 00:10:53;;;;;;;5.90;4.80;;;12.80;61.00;;;;;;5011802;28;20927;-49
2022/09/21 00:13:19;;;;;;;8.40;4.70;;;12.90;60.40;;;;;;5009891;28;20221;-52
2022/09/21 00:15:45;;;;;;;5.60;4.73;;;13.00;59.90;;;;;;5011075;28;20272;-47
2022/09/21 00:18:12;;;;;;;5.80;4.63;;;13.10;59.60;;;;;;5011181;28;20451;-47
2022/09/21 00:20:42;;;;;;;5.60;4.93;;;12.90;59.30;;;;;;5011224;28;20703;-51
2022/09/21 00:23:08;;;;;;;5.10;4.70;;;12.70;60.00;;;;;;5006964;28;20846;-48
2022/09/21 00:25:34;;;;;;;5.63;5.03;;;12.70;60.10;;;;;;5004358;28;20764;-47
2022/09/21 00:28:00;;;;;;;5.77;5.17;;;12.70;60.10;;;;;;5011834;28;20460;-47
2022/09/21 00:30:25;;;;;;;10.30;4.53;;;12.80;60.00;;;;;;5011522;28;20240;-48
2022/09/21 00:32:52;;;;;;;5.43;4.57;;;12.80;59.90;;;;;;5008252;28;20875;-48
2022/09/21 00:35:18;;;;;;;6.93;4.43;;;12.80;59.70;;;;;;5007001;28;20229;-47
2022/09/21 00:37:43;;;;;;;6.77;4.80;;;12.80;59.80;;;;;;5008463;28;20429;-48
2022/09/21 00:40:09;;;;;;;6.83;5.17;;;12.80;59.90;;;;;;5008923;28;20194;-48
2022/09/21 00:42:36;;;;;;;5.20;4.53;;;12.80;60.20;;;;;;5011906;28;20281;-51
2022/09/21 00:45:03;;;;;;;4.60;4.23;;;12.80;59.90;;;;;;5008049;28;20503;-47
2022/09/21 00:47:39;;;;;;;4.63;3.83;;;12.80;59.80;;;;;;5010659;28;20444;-51
2022/09/21 00:50:12;;;;;;;6.50;5.00;;;12.80;59.90;;;;;;5007611;28;20460;-47
2022/09/21 00:52:46;;;;;;;6.70;4.20;;;12.70;60.10;;;;;;5006189;28;20558;-47
2022/09/21 00:55:16;;;;;;;7.17;4.70;;;12.80;60.00;;;;;;5003613;28;20900;-50
2022/09/21 00:57:45;;;;;;;5.00;4.23;;;12.90;59.70;;;;;;5007037;28;20503;-47
2022/09/21 01:00:10;;;;;;;5.07;4.00;;;12.90;59.60;;;;;;5008485;28;20453;-51
2022/09/21 01:02:37;;;;;;;8.57;4.80;;;12.90;59.50;;;;;;5010202;28;20453;-47
2022/09/21 01:05:04;;;;;;;5.60;4.90;;;13.00;59.30;;;;;;5009639;28;21769;-48
2022/09/21 01:07:33;;;;;;;7.67;5.00;;;13.00;58.90;;;;;;5010167;28;21203;-47
2022/09/21 01:10:04;;;;;;;4.90;4.40;;;13.00;58.90;;;;;;5011808;28;20920;-49
2022/09/21 01:13:13;;;;;;;5.97;4.93;;;12.90;58.90;;;;;;5005913;28;20479;-48
2022/09/21 01:15:44;;;;;;;5.13;4.47;;;12.90;59.10;;;;;;4997360;28;20480;-52
2022/09/21 01:18:36;;;;;;;6.53;4.80;;;12.80;59.00;;;;;;5010935;28;20449;-47
2022/09/21 01:21:22;;;;;;;5.07;4.37;;;12.80;59.30;;;;;;4999504;28;20503;-47
2022/09/21 01:24:16;;;;;;;8.90;4.57;;;12.70;59.30;;;;;;5003719;28;20499;-47
2022/09/21 01:27:15;;;;;;;4.43;3.70;;;12.70;59.30;;;;;;5000429;28;20441;-48
2022/09/21 01:29:43;;;;;;;4.97;4.57;;;12.70;59.20;;;;;;5005664;28;20453;-48
2022/09/21 01:32:24;;;;;;;6.30;4.60;;;12.70;59.10;;;;;;5001958;28;20453;-49
2022/09/21 01:35:06;;;;;;;5.57;4.43;;;12.70;59.10;;;;;;5000516;28;21138;-48
2022/09/21 01:37:41;;;;;;;10.37;4.50;;;12.70;59.10;;;;;;5004597;28;20453;-47
2022/09/21 01:40:12;;;;;;;6.57;4.90;;;12.70;58.90;;;;;;5008692;28;20476;-48
2022/09/21 01:42:40;;;;;;;6.77;4.70;;;12.70;58.70;;;;;;5006448;28;22281;-47
2022/09/21 01:45:09;;;;;;;4.90;3.87;;;12.70;58.60;;;;;;5007192;28;20445;-48
2022/09/21 01:47:38;;;;;;;5.03;3.90;;;12.70;58.70;;;;;;5004782;28;20535;-48
2022/09/21 01:50:07;;;;;;;4.87;4.40;;;12.70;58.50;;;;;;5006827;28;20437;-50
2022/09/21 01:52:50;;;;;;;5.40;4.47;;;12.70;58.40;;;;;;5015193;28;20420;-47
2022/09/21 01:55:28;;;;;;;5.13;3.90;;;12.70;58.30;;;;;;5005993;28;20492;-49
2022/09/21 01:58:10;;;;;;;4.60;4.20;;;12.70;58.30;;;;;;5006866;28;20448;-47
2022/09/21 02:00:38;;;;;;;6.10;4.73;;;12.70;58.40;;;;;;5006334;28;20472;-48
2022/09/21 02:03:20;;;;;;;6.80;5.00;;;12.60;58.40;;;;;;5010027;28;20918;-47
2022/09/21 02:05:46;;;;;;;7.80;4.80;;;12.60;58.50;;;;;;5006517;28;20524;-48
2022/09/21 02:08:12;;;;;;;6.23;4.97;;;12.60;58.40;;;;;;5009209;28;21070;-47
2022/09/21 02:11:00;;;;;;;7.83;4.57;;;12.60;58.40;;;;;;5005377;28;20278;-48
2022/09/21 02:13:32;;;;;;;6.90;4.40;;;12.40;58.80;;;;;;5005554;28;20448;-48
2022/09/21 02:16:06;;;;;;;4.50;3.87;;;12.40;58.70;;;;;;5003629;28;21002;-49
2022/09/21 02:18:56;;;;;;;3.77;3.47;;;12.40;58.10;;;;;;5007871;28;20974;-47
2022/09/21 02:21:22;;;;;;;4.30;3.60;;;12.20;58.20;;;;;;5004418;28;21728;-49
2022/09/21 02:24:07;;;;;;;4.90;4.23;;;12.20;58.30;;;;;;5010803;28;20445;-52
2022/09/21 02:26:48;;;;;;;6.80;4.60;;;12.20;58.20;;;;;;5006146;28;20189;-47
2022/09/21 02:29:45;;;;;;;6.50;4.40;;;12.20;58.20;;;;;;5008636;28;20837;-47
2022/09/21 02:32:17;;;;;;;4.20;3.80;;;12.20;58.20;;;;;;4994573;28;20503;-47
2022/09/21 02:35:16;;;;;;;5.23;3.80;;;12.20;58.50;;;;;;5007900;28;20551;-48
2022/09/21 02:37:54;;;;;;;3.90;3.23;;;12.00;59.20;;;;;;4987692;28;20503;-47
2022/09/21 02:40:30;;;;;;;4.70;4.30;;;11.90;59.10;;;;;;5007467;28;20978;-48
2022/09/21 02:43:06;;;;;;;4.03;3.63;;;11.80;59.20;;;;;;5002559;28;20459;-48
2022/09/21 02:45:40;;;;;;;4.47;4.00;;;11.80;59.40;;;;;;5007831;28;20447;-47
2022/09/21 02:48:15;;;;;;;5.53;5.03;;;11.80;59.80;;;;;;5006427;28;20448;-48
2022/09/21 02:50:49;;;;;;;5.40;4.50;;;11.70;60.00;;;;;;5007446;28;20807;-48
2022/09/21 02:53:19;;;;;;;12.10;4.03;;;11.60;60.00;;;;;;5008177;28;20437;-47
2022/09/21 02:55:45;;;;;;;4.83;4.33;;;11.40;61.30;;;;;;5006996;28;20546;-47
2022/09/21 02:58:13;;;;;;;5.50;4.20;;;11.50;61.20;;;;;;5005775;28;21096;-47
2022/09/21 03:00:39;;;;;;;6.17;4.47;;;11.40;60.40;;;;;;5008392;28;20538;-48
2022/09/21 03:03:19;;;;;;;5.80;4.70;;;11.30;61.60;;;;;;5009037;28;20437;-48
2022/09/21 03:05:48;;;;;;;5.90;4.00;;;11.30;61.40;;;;;;5007020;28;20448;-48
2022/09/21 03:08:15;;;;;;;6.13;4.07;;;11.40;61.40;;;;;;5007175;28;20441;-47
2022/09/21 03:10:41;;;;;;;5.90;3.90;;;11.40;61.00;;;;;;5001430;28;20456;-47
2022/09/21 03:13:10;;;;;;;4.93;4.23;;;11.40;61.20;;;;;;5008737;28;20440;-48
2022/09/21 03:15:37;;;;;;;4.70;4.30;;;11.50;60.80;;;;;;4999224;28;20221;-48
2022/09/21 03:18:08;;;;;;;5.20;4.30;;;11.40;60.90;;;;;;5005938;28;20484;-49
2022/09/21 03:20:34;;;;;;;5.03;4.23;;;11.40;61.00;;;;;;5002277;28;20444;-48
2022/09/21 03:23:00;;;;;;;8.40;4.33;;;11.40;60.80;;;;;;5007848;28;21179;-48
2022/09/21 03:25:26;;;;;;;5.47;4.20;;;11.50;61.00;;;;;;5004242;28;20449;-50
2022/09/21 03:27:52;;;;;;;5.60;4.40;;;11.60;60.50;;;;;;5007215;28;20208;-48
2022/09/21 03:30:22;;;;;;;6.80;4.73;;;11.60;60.00;;;;;;5011572;28;20829;-47
2022/09/21 03:32:49;;;;;;;8.07;4.60;;;11.60;60.00;;;;;;5003553;28;20997;-48
2022/09/21 03:35:15;;;;;;;31.33;5.67;;;11.40;60.70;;;;;;5008586;28;21017;-48
2022/09/21 03:37:41;;;;;;;9.00;5.10;;;11.50;60.90;;;;;;5011100;28;20443;-48
2022/09/21 03:40:07;;;;;;;9.73;4.60;;;11.40;61.20;;;;;;5008102;28;20444;-49
2022/09/21 03:42:33;;;;;;;10.03;5.00;;;11.40;61.20;;;;;;5011127;28;20568;-47
2022/09/21 03:44:58;;;;;;;7.00;4.33;;;11.50;61.30;;;;;;5010685;28;20460;-47
2022/09/21 03:47:24;;;;;;;5.93;5.33;;;11.50;61.40;;;;;;5010453;28;20813;-47
2022/09/21 03:49:49;;;;;;;12.33;5.93;;;11.50;61.40;;;;;;5010143;28;20213;-49
2022/09/21 03:52:15;;;;;;;10.27;5.10;;;11.50;61.50;;;;;;5012805;28;20220;-47
2022/09/21 03:54:41;;;;;;;9.27;5.00;;;11.50;61.30;;;;;;5011268;28;20237;-48
2022/09/21 03:57:07;;;;;;;6.20;4.67;;;11.50;62.20;;;;;;5010119;28;20194;-49
2022/09/21 03:59:34;;;;;;;11.20;4.60;;;11.60;61.40;;;;;;5008584;28;20209;-49
2022/09/21 04:02:00;;;;;;;5.90;5.33;;;11.60;61.30;;;;;;5009323;28;20951;-50
2022/09/21 04:04:25;;;;;;;5.80;5.30;;;11.60;61.10;;;;;;5010379;28;20523;-48
2022/09/21 04:06:51;;;;;;;16.93;5.60;;;11.50;61.10;;;;;;5009028;28;20256;-51
2022/09/21 04:09:17;;;;;;;11.90;5.50;;;11.40;61.20;;;;;;5010447;28;20198;-50
2022/09/21 04:11:44;;;;;;;17.90;5.00;;;11.40;61.60;;;;;;5011452;28;20202;-48
2022/09/21 04:14:11;;;;;;;26.57;5.87;;;11.40;61.80;;;;;;5011764;28;20312;-52
2022/09/21 04:16:36;;;;;;;6.37;4.23;;;11.30;61.90;;;;;;5011586;28;20978;-48
2022/09/21 04:19:03;;;;;;;5.63;4.57;;;11.20;62.80;;;;;;5012481;28;20519;-51
2022/09/21 04:21:29;;;;;;;7.50;4.73;;;11.20;63.00;;;;;;5007732;28;20232;-49
2022/09/21 04:23:55;;;;;;;5.40;4.77;;;11.20;62.80;;;;;;5016193;28;20852;-50
2022/09/21 04:26:27;;;;;;;16.33;5.80;;;11.20;62.90;;;;;;5011330;28;20447;-49
2022/09/21 04:28:53;;;;;;;30.20;5.83;;;11.30;63.00;;;;;;5010917;28;20495;-50
2022/09/21 04:31:20;;;;;;;27.33;6.27;;;11.30;63.20;;;;;;5010390;28;20539;-50
2022/09/21 04:33:50;;;;;;;9.70;5.77;;;11.30;63.20;;;;;;5006345;28;20504;-51
2022/09/21 04:36:19;;;;;;;6.30;5.43;;;11.30;63.40;;;;;;5009176;28;20468;-50
2022/09/21 04:38:45;;;;;;;7.67;5.47;;;11.30;63.20;;;;;;5007243;28;20436;-49
2022/09/21 04:41:11;;;;;;;185.77;14.30;;;11.40;63.40;;;;;;5010867;28;20443;-51
2022/09/21 04:43:37;;;;;;;10.90;5.30;;;11.40;63.10;;;;;;5011795;28;20448;-48
2022/09/21 04:46:12;;;;;;;60.83;7.43;;;11.30;63.40;;;;;;5010511;28;20201;-48
2022/09/21 04:48:38;;;;;;;22.53;5.90;;;11.30;64.50;;;;;;5005739;28;20524;-47
2022/09/21 04:51:07;;;;;;;11.50;5.83;;;11.30;63.90;;;;;;5004533;28;20471;-47
2022/09/21 04:53:38;;;;;;;56.43;7.33;;;11.10;64.10;;;;;;5009952;28;20521;-50
2022/09/21 04:56:04;;;;;;;8.20;5.33;;;11.10;64.50;;;;;;5009410;28;20526;-48
2022/09/21 04:58:31;;;;;;;29.23;6.37;;;11.00;64.40;;;;;;5002237;28;20468;-49
2022/09/21 05:00:57;;;;;;;18.87;5.90;;;11.00;66.10;;;;;;5007865;28;20986;-48
2022/09/21 05:03:24;;;;;;;51.23;7.53;;;10.90;65.00;;;;;;5011205;28;20477;-50
2022/09/21 05:05:52;;;;;;;28.90;6.07;;;11.00;65.30;;;;;;5008070;28;21172;-50
2022/09/21 05:11:02;;;;;;;12.03;5.10;;;11.10;65.30;;;;;;5007997;28;20821;-46
2022/09/21 05:13:28;;;;;;;13.23;4.83;;;11.10;65.10;;;;;;5007187;28;20433;-46
2022/09/21 05:15:54;;;;;;;12.10;5.47;;;11.20;65.20;;;;;;5004316;28;20837;-50
2022/09/21 05:18:19;;;;;;;13.50;6.13;;;11.10;64.70;;;;;;5005389;28;20205;-49
2022/09/21 05:20:52;;;;;;;6.60;4.90;;;11.20;65.00;;;;;;5005320;28;20288;-50
2022/09/21 05:23:17;;;;;;;7.63;5.40;;;11.30;64.60;;;;;;5010560;28;20701;-46
2022/09/21 05:25:43;;;;;;;20.53;5.63;;;11.30;64.30;;;;;;5007633;28;20456;-51
2022/09/21 05:28:08;;;;;;;13.97;6.10;;;11.40;67.10;;;;;;5012185;28;20244;-50
2022/09/21 05:30:34;;;;;;;55.93;6.20;;;11.60;67.50;;;;;;5005985;28;20624;-51
2022/09/21 05:33:03;;;;;;;12.60;5.80;;;11.80;67.20;;;;;;5006165;28;20202;-50
2022/09/21 05:35:41;;;;;;;6.60;3.87;;;12.10;66.20;;;;;;5008301;28;20488;-50
2022/09/21 05:38:14;;;;;;;41.53;6.00;;;12.30;65.90;;;;;;5007548;28;20468;-50
2022/09/21 05:40:40;;;;;;;6.53;4.30;;;12.50;64.00;;;;;;5007317;28;20445;-48
2022/09/21 05:43:08;;;;;;;6.87;4.23;;;12.50;62.90;;;;;;5003216;28;21170;-50
2022/09/21 05:45:36;;;;;;;23.00;5.10;;;12.60;63.40;;;;;;5009597;28;20196;-48
2022/09/21 05:48:16;;;;;;;9.50;4.93;;;12.80;62.40;;;;;;5010266;28;20477;-49
2022/09/21 05:50:50;;;;;;;6.57;4.33;;;12.90;61.40;;;;;;5005816;28;20440;-49
2022/09/21 05:53:30;;;;;;;11.07;4.97;;;13.00;60.70;;;;;;5010707;28;20448;-48
2022/09/21 05:56:01;;;;;;;8.20;4.60;;;13.00;60.00;;;;;;5006268;28;20578;-48
2022/09/21 05:58:53;;;;;;;12.97;4.33;;;13.10;59.80;;;;;;5008753;28;20451;-49
2022/09/21 06:01:24;;;;;;;14.83;4.83;;;13.10;59.40;;;;;;5004845;28;20452;-49
2022/09/21 06:03:51;;;;;;;13.50;5.10;;;13.10;59.20;;;;;;5009297;28;20444;-51
2022/09/21 06:06:18;;;;;;;19.57;5.10;;;13.20;59.20;;;;;;5009659;28;20449;-48
2022/09/21 06:08:44;;;;;;;9.67;4.80;;;13.10;58.80;;;;;;5004832;28;20455;-50
2022/09/21 06:11:09;;;;;;;11.27;4.70;;;12.90;59.30;;;;;;5002656;28;20442;-50
2022/09/21 06:13:36;;;;;;;7.30;5.10;;;12.60;59.20;;;;;;5010681;28;20873;-51
2022/09/21 06:16:02;;;;;;;5.93;4.80;;;12.50;60.10;;;;;;5006209;28;20502;-50
2022/09/21 06:18:28;;;;;;;8.50;5.07;;;12.60;60.30;;;;;;5009228;28;20449;-51
2022/09/21 06:20:54;;;;;;;10.47;5.40;;;12.80;60.20;;;;;;5010413;28;22123;-47
2022/09/21 06:23:19;;;;;;;26.13;5.50;;;12.90;60.00;;;;;;5004011;28;20482;-49
2022/09/21 06:25:51;;;;;;;5.80;4.70;;;12.90;59.60;;;;;;5005667;28;20706;-50
2022/09/21 06:28:16;;;;;;;10.23;5.07;;;12.80;59.80;;;;;;5007478;28;20208;-46
2022/09/21 06:30:43;;;;;;;5.70;4.53;;;12.90;59.80;;;;;;5007724;28;20947;-50
2022/09/21 06:33:09;;;;;;;18.50;5.00;;;13.00;59.80;;;;;;5004710;28;20198;-52
2022/09/21 06:35:35;;;;;;;5.50;4.93;;;13.00;59.90;;;;;;5003972;28;20503;-51
2022/09/21 06:38:04;;;;;;;8.10;5.40;;;12.70;59.70;;;;;;5004905;28;20202;-50
2022/09/21 06:40:30;;;;;;;5.17;4.53;;;12.70;60.40;;;;;;5001051;28;20554;-47
2022/09/21 06:43:00;;;;;;;7.10;5.40;;;12.80;60.90;;;;;;4994086;28;20463;-51
2022/09/21 06:45:27;;;;;;;6.60;5.20;;;13.00;60.90;;;;;;5006490;28;20496;-51
2022/09/21 06:47:53;;;;;;;5.93;5.33;;;13.20;60.10;;;;;;5002436;28;20523;-51
2022/09/21 06:50:19;;;;;;;6.37;5.30;;;13.40;59.70;;;;;;5004203;28;21027;-52
2022/09/21 06:52:45;;;;;;;6.27;5.67;;;13.60;59.10;;;;;;5002021;28;20208;-51
2022/09/21 06:55:11;;;;;;;9.07;5.33;;;13.70;59.00;;;;;;5001047;28;20492;-48
2022/09/21 06:57:40;;;;;;;6.60;5.17;;;13.80;58.90;;;;;;4996496;28;20840;-50
2022/09/21 07:00:08;;;;;;;6.10;5.50;;;13.90;58.40;;;;;;4998295;28;20453;-46
2022/09/21 07:02:34;;;;;;;7.90;5.20;;;13.80;57.80;;;;;;4998891;28;20817;-47
2022/09/21 07:05:01;;;;;;;8.30;4.93;;;13.80;57.70;;;;;;5000962;28;20441;-47
2022/09/21 07:07:30;;;;;;;7.77;5.13;;;13.50;58.20;;;;;;4999728;28;20987;-50
2022/09/21 07:10:00;;;;;;;6.03;5.17;;;13.40;58.50;;;;;;5002145;28;20448;-48
2022/09/21 07:12:34;;;;;;;5.77;4.27;;;13.40;58.90;;;;;;4998422;28;20437;-49
2022/09/21 07:15:00;;;;;;;5.47;4.97;;;13.70;59.10;;;;;;4998006;28;20484;-47
2022/09/21 07:17:34;;;;;;;5.33;4.83;;;13.60;58.80;;;;;;4997111;28;20515;-48
2022/09/21 07:20:01;;;;;;;5.97;5.33;;;13.70;58.40;;;;;;5001077;28;20823;-47
2022/09/21 07:22:28;;;;;;;5.70;5.20;;;13.60;59.40;;;;;;4997489;28;20488;-49
2022/09/21 07:24:54;;;;;;;5.70;5.10;;;14.00;59.80;;;;;;5010214;28;20432;-49
2022/09/21 07:27:19;;;;;;;6.10;5.50;;;14.40;59.20;;;;;;5007280;28;20894;-47
2022/09/21 07:29:45;;;;;;;6.70;5.40;;;14.80;58.50;;;;;;5011418;28;20293;-50
2022/09/21 07:32:12;;;;;;;8.40;5.13;;;15.20;57.70;;;;;;5006887;28;20658;-48
2022/09/21 07:34:38;;;;;;;6.00;5.17;;;15.40;56.70;;;;;;5010791;28;20225;-47
2022/09/21 07:37:04;;;;;;;8.10;5.90;;;15.60;56.10;;;;;;5008640;28;20440;-49
2022/09/21 07:39:29;;;;;;;11.13;5.77;;;15.80;55.50;;;;;;5007864;28;20193;-49
2022/09/21 07:41:57;;;;;;;7.53;5.60;;;16.00;55.20;;;;;;5008135;28;20455;-48
2022/09/21 07:44:23;;;;;;;5.63;5.23;;;16.20;55.00;;;;;;5008948;28;20210;-49
2022/09/21 07:46:48;;;;;;;5.60;4.67;;;16.40;54.30;;;;;;5007817;28;20532;-47
2022/09/21 07:49:14;;;;;;;5.73;4.80;;;16.50;54.20;;;;;;5008130;28;20876;-49
2022/09/21 07:51:40;;;;;;;5.90;5.40;;;16.60;54.60;;;;;;5007771;28;20193;-51
2022/09/21 07:54:05;;;;;;;5.67;5.13;;;16.50;54.20;;;;;;5011078;28;20307;-48
2022/09/21 07:56:31;;;;;;;6.57;5.97;;;16.50;54.70;;;;;;5001789;28;20209;-50
2022/09/21 07:59:05;;;;;;;5.90;5.30;;;16.70;53.90;;;;;;5010200;28;20187;-51
2022/09/21 08:01:33;;;;;;;5.53;5.03;;;16.90;53.90;;;;;;5011668;28;20524;-46
2022/09/21 08:03:59;;;;;;;5.60;5.10;;;17.00;53.60;;;;;;5010219;28;20417;-48
2022/09/21 08:06:28;;;;;;;5.60;4.60;;;17.00;53.20;;;;;;5007737;28;20491;-49
2022/09/21 08:08:53;;;;;;;5.50;4.93;;;17.00;53.30;;;;;;5008626;28;20818;-49
2022/09/21 08:11:21;;;;;;;5.30;4.80;;;17.10;53.80;;;;;;5006577;28;20451;-49
2022/09/21 08:13:53;;;;;;;5.07;4.57;;;17.20;53.90;;;;;;5009009;28;20603;-47
2022/09/21 08:16:19;;;;;;;5.03;4.40;;;17.30;54.30;;;;;;5009655;28;20491;-49
2022/09/21 08:18:44;;;;;;;6.00;5.07;;;17.40;53.90;;;;;;5006418;28;20457;-47
2022/09/21 08:21:10;;;;;;;5.23;4.73;;;17.50;53.10;;;;;;5011902;28;20194;-47
2022/09/21 08:23:39;;;;;;;5.27;4.87;;;17.50;53.80;;;;;;5008680;28;20193;-49
2022/09/21 08:26:06;;;;;;;6.03;4.60;;;17.50;55.00;;;;;;5006729;28;20456;-48
2022/09/21 08:28:32;;;;;;;5.10;4.60;;;17.20;54.80;;;;;;5017145;28;20453;-47
2022/09/21 08:30:59;;;;;;;4.17;3.87;;;17.30;55.80;;;;;;5007389;28;20449;-47
2022/09/21 08:33:26;;;;;;;5.27;4.57;;;17.60;55.40;;;;;;5010999;28;20440;-49
2022/09/21 08:35:57;;;;;;;4.83;4.20;;;17.80;54.70;;;;;;5010851;28;20484;-49
2022/09/21 08:38:22;;;;;;;4.80;4.40;;;18.10;54.20;;;;;;5013081;28;20432;-50
2022/09/21 08:40:50;;;;;;;6.70;4.10;;;18.20;53.90;;;;;;5009410;28;20447;-49
2022/09/21 08:43:28;;;;;;;4.70;4.20;;;18.20;53.80;;;;;;5008397;28;20194;-50
2022/09/21 08:45:55;;;;;;;3.37;3.07;;;18.40;53.20;;;;;;5013014;28;20472;-50
2022/09/21 08:48:25;;;;;;;4.00;3.20;;;18.50;52.60;;;;;;5011320;28;20867;-50
2022/09/21 08:50:54;;;;;;;4.90;3.37;;;18.70;52.60;;;;;;5011468;28;20433;-47
2022/09/21 08:53:41;;;;;;;4.17;3.30;;;18.90;52.20;;;;;;5011406;28;20861;-49
2022/09/21 08:56:12;;;;;;;3.87;3.30;;;19.00;51.80;;;;;;5000875;28;20546;-48
2022/09/21 08:58:41;;;;;;;4.53;2.43;;;19.00;51.30;;;;;;5005361;28;20437;-48
2022/09/21 09:01:19;;;;;;;3.53;2.37;;;19.20;50.80;;;;;;5012492;28;20883;-46
2022/09/21 09:03:47;;;;;;;4.57;2.77;;;19.20;51.10;;;;;;5012518;28;20457;-48
2022/09/21 09:06:36;;;;;;;1.77;1.47;;;19.40;51.30;;;;;;5011549;28;20852;-48
2022/09/21 09:09:21;;;;;;;1.70;1.60;;;19.60;49.50;;;;;;5009544;28;20461;-49
2022/09/21 09:12:12;;;;;;;4.77;1.80;;;19.60;49.20;;;;;;5011065;28;20889;-50
2022/09/21 09:14:52;;;;;;;1.77;1.23;;;19.60;48.60;;;;;;5010023;28;20469;-48
2022/09/21 09:17:26;;;;;;;1.67;1.57;;;19.60;47.90;;;;;;5011584;28;20845;-48
2022/09/21 09:20:06;;;;;;;2.63;1.30;;;19.60;47.80;;;;;;5011086;28;20436;-48
2022/09/21 09:22:39;;;;;;;3.80;1.30;;;19.80;48.70;;;;;;5012260;28;20469;-47
2022/09/21 09:25:15;;;;;;;1.57;1.10;;;19.50;47.40;;;;;;5008123;28;20444;-47
2022/09/21 09:27:43;;;;;;;2.13;1.27;;;19.70;48.00;;;;;;5008168;28;20490;-47
2022/09/21 09:30:16;;;;;;;3.00;1.20;;;19.80;47.30;;;;;;5010125;28;20445;-48
2022/09/21 09:33:01;;;;;;;1.30;1.20;;;20.00;46.70;;;;;;5011116;28;20844;-49
2022/09/21 09:35:32;;;;;;;1.40;1.30;;;20.20;46.00;;;;;;5009020;28;20504;-50
2022/09/21 09:38:14;;;;;;;1.33;0.80;;;20.50;45.20;;;;;;5013087;28;20495;-49
2022/09/21 09:41:04;;;;;;;2.40;1.23;;;20.60;44.20;;;;;;5008832;28;20539;-48
2022/09/21 09:43:52;;;;;;;2.23;1.00;;;20.50;44.20;;;;;;5011648;28;20920;-48
2022/09/21 09:46:28;;;;;;;2.60;1.27;;;20.20;44.90;;;;;;4988999;28;20455;-47
2022/09/21 09:49:05;;;;;;;1.63;1.17;;;19.70;44.00;;;;;;5015500;28;20575;-49
2022/09/21 09:51:35;;;;;;;2.23;1.30;;;19.50;45.00;;;;;;5010634;28;21155;-50
2022/09/21 09:54:02;;;;;;;1.73;1.20;;;19.80;45.20;;;;;;5012872;28;20570;-51
2022/09/21 09:56:30;;;;;;;1.37;1.20;;;20.30;45.10;;;;;;5021055;28;20439;-49
2022/09/21 09:58:59;;;;;;;2.57;1.30;;;20.80;44.60;;;;;;5007364;28;20536;-49
2022/09/21 10:01:45;;;;;;;3.93;1.20;;;20.90;44.00;;;;;;5019427;28;20498;-46
2022/09/21 10:04:13;;;;;;;1.43;1.20;;;21.20;42.80;;;;;;5024160;28;20536;-46
2022/09/21 10:06:39;;;;;;;3.23;1.40;;;21.40;43.60;;;;;;5011639;28;20475;-47
2022/09/21 10:09:19;;;;;;;2.30;1.10;;;21.70;43.10;;;;;;5017441;28;20537;-48
2022/09/21 10:11:46;;;;;;;2.87;1.30;;;22.20;43.40;;;;;;5004919;28;20453;-47
2022/09/21 10:14:17;;;;;;;1.47;1.00;;;22.60;41.90;;;;;;5013187;28;20523;-47
2022/09/21 10:16:43;;;;;;;1.97;0.90;;;23.00;42.40;;;;;;5009103;28;20448;-50
2022/09/21 10:19:20;;;;;;;2.20;1.20;;;22.90;40.60;;;;;;5013368;28;20494;-45
2022/09/21 10:21:46;;;;;;;1.50;1.40;;;23.10;40.60;;;;;;5009692;28;20538;-47
2022/09/21 10:24:32;;;;;;;1.63;1.20;;;23.00;39.90;;;;;;5012694;28;20512;-45
2022/09/21 10:27:05;;;;;;;1.97;1.10;;;23.00;39.90;;;;;;5003224;28;20212;-45
2022/09/21 10:29:47;;;;;;;2.87;1.53;;;22.70;40.50;;;;;;5009208;28;20563;-44
2022/09/21 10:32:15;;;;;;;1.30;1.07;;;22.50;39.50;;;;;;5009650;28;20499;-45
2022/09/21 10:34:58;;;;;;;0.97;0.80;;;22.50;39.90;;;;;;5009724;28;20538;-45
2022/09/21 10:37:28;;;;;;;0.97;0.80;;;22.60;39.30;;;;;;5007741;28;20436;-45
2022/09/21 10:39:54;;;;;;;1.57;0.90;;;22.40;39.70;;;;;;5009553;28;20449;-45
2022/09/21 10:42:20;;;;;;;1.27;0.90;;;22.00;38.70;;;;;;5010771;28;20436;-46
2022/09/21 10:44:49;;;;;;;1.10;1.00;;;21.90;39.20;;;;;;5007945;28;20877;-49
2022/09/21 10:47:35;;;;;;;0.80;0.80;;;21.80;39.80;;;;;;5008879;28;20528;-49
2022/09/21 10:50:06;;;;;;;1.17;1.07;;;21.90;40.10;;;;;;5000047;28;21197;-46
2022/09/21 10:52:42;;;;;;;1.10;1.00;;;21.80;40.60;;;;;;5011098;28;20452;-44
2022/09/21 10:55:20;;;;;;;1.17;0.90;;;21.70;39.80;;;;;;5010448;28;20488;-46
2022/09/21 10:57:47;;;;;;;1.50;0.97;;;21.50;40.30;;;;;;5003655;28;20948;-47
2022/09/21 11:00:25;;;;;;;0.97;0.87;;;21.10;41.80;;;;;;5018021;28;20459;-47
2022/09/21 11:02:53;;;;;;;0.90;0.90;;;21.40;41.90;;;;;;5008231;28;20455;-46
2022/09/21 11:05:21;;;;;;;3.60;1.17;;;22.00;42.20;;;;;;5003598;28;20441;-49
2022/09/21 11:08:14;;;;;;;1.20;1.10;;;22.40;40.70;;;;;;5002584;28;20453;-50
2022/09/21 11:10:49;;;;;;;1.73;1.10;;;23.00;40.80;;;;;;5008666;28;20445;-50
2022/09/21 11:13:27;;;;;;;2.20;0.97;;;23.30;39.20;;;;;;5007734;28;20452;-47
2022/09/21 11:16:08;;;;;;;2.73;1.30;;;23.70;40.10;;;;;;5008377;28;20545;-47
2022/09/21 11:18:48;;;;;;;1.47;1.37;;;24.30;38.90;;;;;;5007061;28;20433;-46
2022/09/21 11:21:33;;;;;;;1.57;0.87;;;24.30;37.20;;;;;;5004684;28;20440;-46
2022/09/21 11:24:13;;;;;;;1.30;1.00;;;24.60;39.10;;;;;;5004042;28;20524;-47
2022/09/21 11:26:53;;;;;;;0.93;0.80;;;24.80;36.20;;;;;;5004360;28;20440;-47
2022/09/21 11:29:58;;;;;;;1.90;1.00;;;25.10;35.60;;;;;;5007043;28;20484;-47
2022/09/21 11:32:36;;;;;;;1.43;0.83;;;25.20;35.70;;;;;;4976988;28;20975;-46
2022/09/21 11:35:21;;;;;;;2.40;1.10;;;25.40;36.30;;;;;;5005612;28;20594;-46
2022/09/21 11:38:34;;;;;;;1.90;0.90;;;25.30;34.40;;;;;;4998846;28;20452;-47
2022/09/21 11:41:16;;;;;;;1.93;1.10;;;25.40;35.30;;;;;;5004258;28;20941;-48
2022/09/21 11:44:31;;;;;;;1.03;0.80;;;25.20;35.90;;;;;;5006276;28;20491;-46
2022/09/21 11:47:10;;;;;;;1.00;0.90;;;25.30;34.20;;;;;;5003175;28;20956;-49
2022/09/21 11:49:54;;;;;;;1.03;0.93;;;25.60;34.50;;;;;;5011621;28;20990;-47
2022/09/21 11:52:40;;;;;;;0.90;0.80;;;25.90;34.00;;;;;;5008172;28;20919;-48
2022/09/21 11:55:35;;;;;;;0.80;0.70;;;26.10;34.90;;;;;;5007794;28;20593;-46
2022/09/21 11:58:23;;;;;;;1.40;1.03;;;26.50;34.70;;;;;;5004050;28;20889;-47
2022/09/21 12:01:07;;;;;;;2.37;1.47;;;26.80;34.50;;;;;;5009329;28;20445;-47
2022/09/21 12:03:46;;;;;;;1.40;1.03;;;27.00;33.30;;;;;;5010269;28;20467;-48
2022/09/21 12:06:28;;;;;;;1.43;0.80;;;27.20;33.20;;;;;;5008852;28;20712;-46
2022/09/21 12:09:28;;;;;;;1.03;0.87;;;27.10;31.80;;;;;;5012198;28;20491;-47
2022/09/21 12:12:01;;;;;;;2.77;1.17;;;26.90;32.10;;;;;;5013367;28;20444;-45
2022/09/21 12:14:54;;;;;;;1.67;1.10;;;26.40;31.70;;;;;;5013079;28;20967;-47
2022/09/21 12:17:41;;;;;;;1.10;1.00;;;26.30;32.00;;;;;;5008985;28;20461;-47
2022/09/21 12:20:22;;;;;;;1.17;0.90;;;26.10;33.20;;;;;;5019010;28;20455;-47
2022/09/21 12:22:51;;;;;;;2.20;1.27;;;25.90;33.00;;;;;;5001764;28;20479;-46
2022/09/21 12:25:46;;;;;;;1.13;0.90;;;25.60;33.40;;;;;;5010645;28;20479;-47
2022/09/21 12:28:53;;;;;;;1.93;1.13;;;25.50;33.10;;;;;;5006557;28;20464;-46
2022/09/21 12:31:25;;;;;;;1.20;0.80;;;25.40;33.60;;;;;;4969954;28;20500;-46
2022/09/21 12:34:00;;;;;;;2.93;1.60;;;25.30;34.10;;;;;;4966934;28;20461;-46
2022/09/21 12:36:52;;;;;;;4.20;3.73;;;25.00;33.40;;;;;;4988929;28;20586;-46
2022/09/21 12:39:59;;;;;;;1.23;1.03;;;24.80;33.30;;;;;;5002498;28;20540;-52
2022/09/21 12:43:22;;;;;;;1.07;0.97;;;24.50;33.30;;;;;;4958816;28;20455;-47
2022/09/21 12:45:55;;;;;;;1.83;1.63;;;24.10;34.70;;;;;;4948818;28;20451;-51
2022/09/21 12:48:33;;;;;;;2.43;2.20;;;24.20;35.00;;;;;;4948737;29;20466;-46
2022/09/21 12:51:25;;;;;;;2.30;1.93;;;24.10;34.30;;;;;;4993344;28;20792;-46
2022/09/21 12:53:52;;;;;;;1.77;1.67;;;24.10;34.40;;;;;;4997576;28;20457;-48
2022/09/21 12:56:48;;;;;;;1.83;1.13;;;24.30;35.30;;;;;;5012368;28;21009;-48
2022/09/21 12:59:36;;;;;;;2.33;1.50;;;24.10;34.20;;;;;;5010017;28;20826;-48
2022/09/21 13:02:33;;;;;;;1.40;1.00;;;23.90;34.10;;;;;;5009436;28;20446;-48
2022/09/21 13:05:14;;;;;;;1.97;1.00;;;23.90;33.90;;;;;;5007028;28;20925;-48
2022/09/21 13:08:06;;;;;;;1.63;1.10;;;23.90;33.80;;;;;;5002346;28;21126;-48
2022/09/21 13:10:54;;;;;;;1.20;1.10;;;24.00;33.40;;;;;;5003737;28;20468;-46
2022/09/21 13:13:37;;;;;;;2.10;0.80;;;24.20;33.40;;;;;;5007814;28;20502;-47
2022/09/21 13:16:06;;;;;;;1.00;0.90;;;24.00;33.20;;;;;;5004388;28;20491;-48
2022/09/21 13:18:34;;;;;;;1.40;0.80;;;24.00;33.30;;;;;;5003222;28;20819;-47